Time;durP1;ratioP1;P1;durP2;ratioP2;P2;SDS_P1;SDS_P2;PMS_P1;PMS_P2;Temp;Humidity;BMP_temperature;BMP_pressure;BME280_temperature;BME280_humidity;BME280_pressure;Samples;Min_cycle;Max_cycle;Signal;HPM_P1;HPM_P2
2021/01/17 00:01:52;;;;;;;44.63;28.00;;;0.20;94.00;;;;;;5038454;28;20041;-71
2021/01/17 00:04:24;;;;;;;41.63;28.52;;;0.20;94.00;;;;;;5035997;28;20033;-71
2021/01/17 00:06:56;;;;;;;41.78;27.50;;;0.20;94.00;;;;;;5038360;28;20179;-71
2021/01/17 00:09:22;;;;;;;42.17;28.42;;;0.20;94.00;;;;;;5031407;28;20029;-71
2021/01/17 00:11:57;;;;;;;42.63;26.48;;;0.20;94.10;;;;;;5036261;28;20077;-71
2021/01/17 00:14:41;;;;;;;41.37;28.20;;;0.30;94.00;;;;;;5035208;28;20070;-71
2021/01/17 00:17:15;;;;;;;40.72;27.02;;;0.20;93.90;;;;;;5040237;28;20018;-71
2021/01/17 00:19:41;;;;;;;46.10;29.45;;;0.30;94.00;;;;;;5035180;28;20038;-71
2021/01/17 00:22:25;;;;;;;40.63;27.85;;;0.20;94.10;;;;;;5035817;28;20525;-71
2021/01/17 00:24:57;;;;;;;38.58;27.45;;;0.30;94.10;;;;;;5034219;28;20047;-71
2021/01/17 00:27:23;;;;;;;39.17;27.80;;;0.30;94.10;;;;;;5025857;28;20534;-71
2021/01/17 00:29:48;;;;;;;43.03;29.00;;;0.20;94.10;;;;;;5019063;28;20038;-71
2021/01/17 00:32:14;;;;;;;45.83;28.60;;;0.20;94.10;;;;;;5026211;28;20044;-71
2021/01/17 00:34:40;;;;;;;43.88;28.30;;;0.20;94.10;;;;;;5018794;28;20376;-71
2021/01/17 00:37:07;;;;;;;42.55;29.10;;;0.20;94.20;;;;;;5019186;28;20106;-71
2021/01/17 00:39:33;;;;;;;42.97;29.60;;;0.20;94.10;;;;;;5026135;28;20037;-71
2021/01/17 00:41:58;;;;;;;40.88;27.85;;;0.40;94.20;;;;;;5023619;28;20115;-71
2021/01/17 00:44:24;;;;;;;44.58;29.35;;;0.20;94.20;;;;;;5022649;28;20739;-71
2021/01/17 00:46:49;;;;;;;44.00;28.60;;;0.20;94.10;;;;;;5021256;28;20061;-71
2021/01/17 00:49:16;;;;;;;44.40;30.42;;;0.20;94.10;;;;;;5021858;28;20051;-71
2021/01/17 00:51:45;;;;;;;41.47;28.33;;;0.20;94.20;;;;;;5022626;28;20053;-71
2021/01/17 00:54:13;;;;;;;38.95;28.02;;;0.20;94.10;;;;;;5024589;28;20060;-71
2021/01/17 00:56:39;;;;;;;41.45;29.65;;;0.20;94.10;;;;;;5023770;28;20045;-71
2021/01/17 00:59:05;;;;;;;40.58;28.98;;;0.20;94.20;;;;;;5022255;28;20065;-71
2021/01/17 01:01:43;;;;;;;38.08;28.52;;;0.20;94.10;;;;;;5026750;28;20041;-71
2021/01/17 01:04:16;;;;;;;43.92;28.85;;;0.20;94.10;;;;;;5022220;28;20041;-71
2021/01/17 01:06:43;;;;;;;49.30;30.88;;;0.20;94.10;;;;;;5027241;28;20037;-71
2021/01/17 01:09:14;;;;;;;43.47;29.70;;;0.20;94.20;;;;;;5025326;28;20037;-71
2021/01/17 01:11:39;;;;;;;42.55;29.30;;;0.20;94.10;;;;;;5023553;28;20033;-71
2021/01/17 01:14:06;;;;;;;46.33;31.48;;;0.20;94.10;;;;;;5022358;28;20042;-71
2021/01/17 01:16:32;;;;;;;43.22;31.55;;;0.20;94.10;;;;;;5026177;28;20145;-71
2021/01/17 01:18:59;;;;;;;46.42;32.03;;;0.30;94.00;;;;;;5023091;28;20125;-71
2021/01/17 01:21:26;;;;;;;43.92;30.30;;;0.20;94.10;;;;;;5029120;28;20056;-71
2021/01/17 01:23:52;;;;;;;41.88;29.58;;;0.30;94.10;;;;;;5023984;28;20047;-71
2021/01/17 01:26:20;;;;;;;44.33;30.33;;;0.20;94.10;;;;;;5025911;28;20398;-71
2021/01/17 01:28:50;;;;;;;42.78;30.17;;;0.30;94.10;;;;;;5022539;28;20136;-71
2021/01/17 01:31:17;;;;;;;44.13;30.95;;;0.30;94.10;;;;;;5027337;28;20106;-71
2021/01/17 01:33:43;;;;;;;43.90;30.80;;;0.40;94.10;;;;;;5027000;28;20426;-71
2021/01/17 01:36:16;;;;;;;46.72;30.50;;;0.30;94.10;;;;;;5022206;28;20042;-71
2021/01/17 01:38:42;;;;;;;46.08;31.35;;;0.30;94.10;;;;;;5024137;28;20466;-70
2021/01/17 01:41:08;;;;;;;42.78;30.85;;;0.50;94.10;;;;;;5022707;28;20041;-71
2021/01/17 01:43:34;;;;;;;46.65;30.70;;;0.40;94.10;;;;;;5023919;28;20037;-71
2021/01/17 01:45:59;;;;;;;43.20;30.88;;;0.30;94.00;;;;;;5021390;28;20407;-70
2021/01/17 01:48:30;;;;;;;45.15;30.38;;;0.30;94.00;;;;;;5024741;28;20029;-70
2021/01/17 01:50:55;;;;;;;45.47;31.23;;;0.30;94.10;;;;;;5022643;28;20038;-70
2021/01/17 01:53:22;;;;;;;43.17;30.48;;;0.30;94.00;;;;;;5022692;28;20048;-71
2021/01/17 01:55:47;;;;;;;44.60;31.85;;;0.40;94.10;;;;;;5024960;28;20095;-71
2021/01/17 01:58:17;;;;;;;43.25;30.92;;;0.30;94.10;;;;;;5025662;28;20041;-71
2021/01/17 02:00:43;;;;;;;45.55;31.48;;;0.30;94.10;;;;;;5025336;28;20167;-71
2021/01/17 02:03:09;;;;;;;43.35;30.70;;;0.40;94.10;;;;;;5028163;28;20475;-71
2021/01/17 02:05:34;;;;;;;41.90;30.88;;;0.30;94.00;;;;;;5021765;28;20549;-71
2021/01/17 02:08:07;;;;;;;44.65;32.30;;;0.30;94.00;;;;;;5024895;28;20060;-71
2021/01/17 02:10:34;;;;;;;46.83;32.00;;;0.40;94.00;;;;;;5023315;28;20034;-71
2021/01/17 02:13:28;;;;;;;43.90;32.17;;;0.40;94.00;;;;;;5024207;28;20403;-71
2021/01/17 02:15:56;;;;;;;47.03;31.38;;;0.40;94.00;;;;;;5026947;28;20045;-71
2021/01/17 02:18:22;;;;;;;46.78;32.78;;;0.40;94.00;;;;;;5023473;28;20041;-71
2021/01/17 02:20:50;;;;;;;43.08;31.45;;;0.30;93.90;;;;;;5023536;28;20037;-71
2021/01/17 02:23:25;;;;;;;47.33;32.75;;;0.40;94.00;;;;;;5026311;28;20037;-71
2021/01/17 02:25:51;;;;;;;49.00;32.83;;;0.40;94.00;;;;;;5022067;28;20041;-71
2021/01/17 02:28:18;;;;;;;48.10;32.97;;;0.30;94.00;;;;;;5025086;28;20495;-71
2021/01/17 02:30:51;;;;;;;50.22;33.90;;;0.50;94.00;;;;;;5022795;28;20414;-71
2021/01/17 02:33:30;;;;;;;44.08;32.15;;;0.30;93.90;;;;;;5026235;28;20034;-71
2021/01/17 02:36:17;;;;;;;50.45;33.88;;;0.40;93.90;;;;;;5020987;28;20059;-71
2021/01/17 02:39:10;;;;;;;48.15;32.72;;;0.40;94.00;;;;;;5022452;28;20372;-71
2021/01/17 02:42:03;;;;;;;45.72;32.22;;;0.30;93.90;;;;;;5024113;28;20127;-71
2021/01/17 02:44:33;;;;;;;45.70;32.42;;;0.40;93.90;;;;;;5025152;28;20042;-71
2021/01/17 02:46:59;;;;;;;48.53;32.45;;;0.40;94.10;;;;;;5021812;28;20587;-71
2021/01/17 02:49:25;;;;;;;43.63;32.38;;;0.40;94.00;;;;;;5026090;28;20075;-71
2021/01/17 02:51:52;;;;;;;51.42;34.60;;;0.30;93.90;;;;;;5026091;28;20026;-71
2021/01/17 02:54:32;;;;;;;49.40;33.05;;;0.40;94.00;;;;;;5022178;28;20041;-71
2021/01/17 02:57:06;;;;;;;47.10;32.83;;;0.40;94.00;;;;;;5022716;28;20128;-71
2021/01/17 02:59:57;;;;;;;48.40;32.10;;;0.40;94.00;;;;;;5025804;28;20458;-71
2021/01/17 03:02:28;;;;;;;49.08;32.92;;;0.40;93.90;;;;;;5020913;28;20072;-71
2021/01/17 03:05:03;;;;;;;49.72;33.97;;;0.40;94.00;;;;;;5021365;28;20112;-71
2021/01/17 03:07:30;;;;;;;52.25;35.03;;;0.40;94.00;;;;;;5024504;28;20103;-71
2021/01/17 03:09:57;;;;;;;53.95;35.33;;;0.40;93.90;;;;;;5024635;28;20119;-71
2021/01/17 03:12:22;;;;;;;54.65;35.50;;;0.40;94.00;;;;;;5023577;28;20138;-71
2021/01/17 03:14:49;;;;;;;51.13;35.13;;;0.40;94.00;;;;;;5020244;28;20535;-71
2021/01/17 03:17:15;;;;;;;52.00;35.28;;;0.40;94.10;;;;;;5021338;28;20056;-71
2021/01/17 03:19:41;;;;;;;52.28;35.17;;;0.40;94.00;;;;;;5024654;28;20045;-71
2021/01/17 03:22:07;;;;;;;53.55;35.40;;;0.40;94.10;;;;;;5023329;28;20041;-71
2021/01/17 03:24:32;;;;;;;54.85;37.08;;;0.40;94.10;;;;;;5024057;28;20045;-71
2021/01/17 03:26:58;;;;;;;56.47;36.67;;;0.60;94.10;;;;;;5029039;28;20168;-71
2021/01/17 03:29:23;;;;;;;54.40;37.35;;;0.40;94.10;;;;;;5025800;28;20124;-71
2021/01/17 03:31:49;;;;;;;53.17;36.65;;;0.50;94.10;;;;;;5021011;28;20376;-71
2021/01/17 03:34:15;;;;;;;58.88;37.30;;;0.50;94.10;;;;;;5022644;28;20479;-71
2021/01/17 03:36:41;;;;;;;57.90;37.72;;;0.50;94.00;;;;;;5023785;28;20045;-71
2021/01/17 03:39:07;;;;;;;61.03;38.67;;;0.60;94.10;;;;;;5024058;28;20092;-71
2021/01/17 03:41:33;;;;;;;54.55;35.53;;;0.40;94.10;;;;;;5020776;28;20452;-71
2021/01/17 03:43:59;;;;;;;59.70;37.88;;;0.40;94.10;;;;;;5020851;28;20099;-71
2021/01/17 03:46:27;;;;;;;56.20;37.08;;;0.40;94.10;;;;;;5021254;28;20037;-71
2021/01/17 03:48:54;;;;;;;58.55;37.53;;;0.50;94.10;;;;;;5021166;28;20061;-71
2021/01/17 03:51:19;;;;;;;60.90;37.25;;;0.50;94.20;;;;;;5019068;28;20068;-71
2021/01/17 03:53:45;;;;;;;55.33;36.63;;;0.40;94.20;;;;;;5020992;28;20132;-71
2021/01/17 03:56:11;;;;;;;62.08;38.85;;;0.40;94.20;;;;;;5022558;28;20555;-71
2021/01/17 03:58:36;;;;;;;61.88;38.75;;;0.50;94.10;;;;;;5024273;28;20148;-71
2021/01/17 04:01:02;;;;;;;58.70;38.00;;;0.40;94.10;;;;;;5019399;28;20046;-71
2021/01/17 04:03:28;;;;;;;63.50;37.95;;;0.40;94.10;;;;;;5018513;28;20037;-71
2021/01/17 04:05:53;;;;;;;62.30;37.22;;;0.60;94.30;;;;;;5021458;28;20109;-71
2021/01/17 04:08:19;;;;;;;59.40;38.65;;;0.50;94.30;;;;;;5024686;28;20029;-71
2021/01/17 04:10:45;;;;;;;57.83;37.53;;;0.50;94.20;;;;;;5020775;28;20642;-71
2021/01/17 04:13:10;;;;;;;55.38;36.33;;;0.50;94.30;;;;;;5018214;28;20033;-71
2021/01/17 04:15:36;;;;;;;60.13;36.60;;;0.50;94.30;;;;;;5024601;28;20093;-71
2021/01/17 04:18:02;;;;;;;60.05;36.97;;;0.50;94.30;;;;;;5024398;28;20096;-71
2021/01/17 04:20:27;;;;;;;64.60;38.53;;;0.50;94.30;;;;;;5019633;28;20521;-71
2021/01/17 04:22:53;;;;;;;63.95;37.47;;;0.50;94.30;;;;;;5024060;28;20036;-71
2021/01/17 04:25:19;;;;;;;64.25;38.45;;;0.60;94.30;;;;;;5019674;28;20503;-71
2021/01/17 04:27:45;;;;;;;66.53;38.60;;;0.50;94.30;;;;;;5024741;28;20074;-71
2021/01/17 04:30:11;;;;;;;63.17;38.45;;;0.60;94.40;;;;;;5020796;28;20068;-71
2021/01/17 04:32:39;;;;;;;69.97;39.10;;;0.50;94.50;;;;;;5024654;28;20076;-71
2021/01/17 04:35:05;;;;;;;70.18;39.35;;;0.50;94.60;;;;;;5026966;28;20103;-71
2021/01/17 04:37:31;;;;;;;68.85;39.58;;;0.50;94.70;;;;;;5024694;28;20038;-71
2021/01/17 04:39:57;;;;;;;71.75;38.25;;;0.50;94.90;;;;;;5025218;28;20459;-71
2021/01/17 04:42:23;;;;;;;66.35;36.70;;;0.50;94.90;;;;;;5025524;28;20040;-71
2021/01/17 04:44:51;;;;;;;80.18;41.30;;;0.50;94.90;;;;;;5025637;28;20099;-71
2021/01/17 04:47:19;;;;;;;72.30;38.33;;;0.50;95.00;;;;;;5020314;28;20041;-71
2021/01/17 04:49:51;;;;;;;68.78;37.63;;;0.50;95.10;;;;;;5022670;28;20785;-71
2021/01/17 04:52:20;;;;;;;75.95;39.22;;;0.50;95.20;;;;;;5025252;28;20551;-71
2021/01/17 04:54:47;;;;;;;85.25;41.25;;;0.50;95.20;;;;;;5029062;28;20033;-71
2021/01/17 04:57:28;;;;;;;84.00;39.05;;;0.70;95.30;;;;;;5024206;28;20053;-71
2021/01/17 05:00:10;;;;;;;72.70;38.90;;;0.50;95.30;;;;;;5026566;28;20156;-71
2021/01/17 05:03:01;;;;;;;73.45;37.28;;;0.50;95.30;;;;;;5023148;28;20108;-71
2021/01/17 05:05:34;;;;;;;81.07;40.22;;;0.50;95.30;;;;;;5021907;28;20077;-71
2021/01/17 05:08:25;;;;;;;81.15;38.80;;;0.50;95.30;;;;;;5023619;28;20042;-71
2021/01/17 05:10:59;;;;;;;76.13;37.72;;;0.50;95.30;;;;;;5024133;28;20037;-71
2021/01/17 05:13:32;;;;;;;72.10;39.08;;;0.50;95.30;;;;;;5024698;28;20036;-71
2021/01/17 05:16:03;;;;;;;74.20;37.70;;;0.50;95.20;;;;;;5026900;28;20065;-71
2021/01/17 05:18:30;;;;;;;72.13;37.72;;;0.60;95.30;;;;;;5025072;28;20407;-71
2021/01/17 05:21:00;;;;;;;68.57;36.80;;;0.60;95.20;;;;;;5026156;28;20037;-71
2021/01/17 05:23:33;;;;;;;69.00;36.22;;;0.70;95.20;;;;;;5024408;28;20496;-71
2021/01/17 05:26:00;;;;;;;72.78;38.22;;;0.50;95.20;;;;;;5026172;28;20053;-71
2021/01/17 05:28:25;;;;;;;68.53;36.60;;;0.60;95.20;;;;;;5024932;28;20069;-71
2021/01/17 05:30:54;;;;;;;67.60;36.22;;;0.60;95.20;;;;;;5023126;28;20073;-71
2021/01/17 05:33:26;;;;;;;66.15;36.42;;;0.50;95.20;;;;;;5023769;28;20034;-71
2021/01/17 05:35:51;;;;;;;65.30;36.25;;;0.70;95.20;;;;;;5025396;28;20152;-71
2021/01/17 05:38:17;;;;;;;72.97;36.85;;;0.60;95.20;;;;;;5024173;28;20108;-71
2021/01/17 05:40:43;;;;;;;66.07;35.63;;;0.60;95.20;;;;;;5029702;28;20041;-71
2021/01/17 05:43:09;;;;;;;66.45;36.08;;;0.60;95.30;;;;;;5028012;28;20037;-71
2021/01/17 05:45:35;;;;;;;69.35;37.13;;;0.50;95.30;;;;;;5023182;28;20041;-71
2021/01/17 05:48:21;;;;;;;69.97;35.42;;;0.60;95.40;;;;;;5024114;28;20068;-71
2021/01/17 05:50:47;;;;;;;66.45;34.95;;;0.60;95.40;;;;;;5021150;28;20504;-71
2021/01/17 05:53:12;;;;;;;68.40;36.38;;;0.60;95.40;;;;;;5023548;28;20426;-71
2021/01/17 05:55:44;;;;;;;62.42;33.53;;;0.60;95.30;;;;;;5023372;28;20042;-71
2021/01/17 05:58:25;;;;;;;56.92;33.13;;;0.70;95.50;;;;;;5024275;28;20080;-71
2021/01/17 06:00:53;;;;;;;67.60;34.95;;;0.60;95.40;;;;;;5022826;28;20041;-71
2021/01/17 06:03:24;;;;;;;68.10;34.20;;;0.60;95.40;;;;;;5019258;28;20045;-71
2021/01/17 06:05:51;;;;;;;59.88;34.50;;;0.70;95.50;;;;;;5024475;28;20052;-71
2021/01/17 06:08:20;;;;;;;64.00;33.70;;;0.70;95.50;;;;;;5021967;28;20056;-71
2021/01/17 06:10:47;;;;;;;65.28;34.65;;;0.70;95.40;;;;;;5024310;28;20037;-71
2021/01/17 06:13:20;;;;;;;61.80;33.05;;;0.70;95.40;;;;;;5027733;28;20041;-71
2021/01/17 06:15:46;;;;;;;64.15;33.10;;;0.70;95.40;;;;;;5020481;28;20037;-71
2021/01/17 06:18:18;;;;;;;62.80;32.88;;;0.70;95.40;;;;;;5022144;28;20391;-71
2021/01/17 06:20:44;;;;;;;66.80;35.15;;;0.70;95.40;;;;;;5023972;28;20119;-71
2021/01/17 06:23:10;;;;;;;61.60;34.03;;;0.80;95.40;;;;;;5022219;28;20523;-71
2021/01/17 06:25:36;;;;;;;62.53;35.10;;;0.70;95.40;;;;;;5025785;28;20064;-71
2021/01/17 06:28:10;;;;;;;68.47;34.63;;;0.70;95.50;;;;;;5022123;28;20357;-71
2021/01/17 06:30:36;;;;;;;59.53;32.90;;;0.70;95.60;;;;;;5023109;28;20103;-71
2021/01/17 06:33:03;;;;;;;64.03;33.55;;;0.70;95.60;;;;;;5025243;28;20125;-71
2021/01/17 06:35:38;;;;;;;65.18;33.67;;;0.70;95.60;;;;;;5026691;28;20045;-71
2021/01/17 06:38:17;;;;;;;65.13;35.35;;;0.70;95.50;;;;;;5024791;28;20392;-70
2021/01/17 06:40:48;;;;;;;65.72;33.85;;;0.70;95.50;;;;;;5022025;28;20038;-70
2021/01/17 06:43:15;;;;;;;64.47;33.53;;;0.80;95.60;;;;;;5021136;28;20096;-70
2021/01/17 06:45:45;;;;;;;62.55;34.00;;;0.80;95.60;;;;;;5022046;28;20488;-70
2021/01/17 06:48:25;;;;;;;63.90;32.83;;;0.80;95.60;;;;;;5016971;28;20042;-70
2021/01/17 06:50:52;;;;;;;61.08;31.80;;;0.80;95.60;;;;;;5019556;28;20040;-70
2021/01/17 06:53:25;;;;;;;60.33;32.50;;;1.00;95.70;;;;;;5026261;28;20045;-70
2021/01/17 06:56:14;;;;;;;57.00;31.55;;;0.80;95.60;;;;;;5024974;28;20040;-70
2021/01/17 06:58:41;;;;;;;58.92;32.45;;;0.80;95.60;;;;;;5021125;28;20116;-70
2021/01/17 07:01:08;;;;;;;59.92;32.65;;;0.80;95.60;;;;;;5019581;28;20038;-70
2021/01/17 07:04:03;;;;;;;62.90;32.40;;;0.80;95.60;;;;;;5022515;28;20068;-70
2021/01/17 07:06:47;;;;;;;57.78;29.83;;;0.80;95.60;;;;;;5022002;28;20061;-70
2021/01/17 07:09:29;;;;;;;61.53;31.63;;;0.80;95.50;;;;;;5024178;28;20046;-70
2021/01/17 07:12:12;;;;;;;57.47;30.20;;;0.90;95.50;;;;;;5021417;28;21302;-70
2021/01/17 07:14:40;;;;;;;53.50;29.85;;;0.80;95.50;;;;;;5022251;28;20121;-70
2021/01/17 07:17:08;;;;;;;55.75;28.35;;;1.00;95.60;;;;;;5020510;28;20041;-70
2021/01/17 07:19:39;;;;;;;52.78;29.92;;;0.90;95.50;;;;;;5024967;28;20725;-70
2021/01/17 07:22:05;;;;;;;52.05;29.05;;;0.90;95.60;;;;;;5021895;28;20141;-70
2021/01/17 07:24:32;;;;;;;51.35;29.80;;;0.90;95.50;;;;;;5027094;28;20120;-70
2021/01/17 07:27:08;;;;;;;54.05;28.88;;;0.90;95.50;;;;;;5025583;28;20484;-70
2021/01/17 07:29:34;;;;;;;;;;;0.90;95.50;;;;;;5017566;28;20046;-70
2021/01/17 07:32:00;;;;;;;51.28;29.02;;;0.90;95.50;;;;;;5022592;28;19917;-70
2021/01/17 07:34:30;;;;;;;51.67;28.27;;;0.90;95.50;;;;;;5024599;28;20064;-70
2021/01/17 07:37:00;;;;;;;55.78;29.58;;;0.90;95.50;;;;;;5025096;28;20037;-70
2021/01/17 07:39:33;;;;;;;53.63;28.95;;;0.90;95.50;;;;;;5022747;28;20111;-70
2021/01/17 07:42:02;;;;;;;58.55;30.52;;;0.90;95.50;;;;;;5019516;28;20057;-70
2021/01/17 07:44:31;;;;;;;56.72;30.90;;;0.90;95.50;;;;;;5020340;28;20055;-70
2021/01/17 07:47:04;;;;;;;56.55;29.13;;;0.90;95.50;;;;;;5026790;28;20049;-70
2021/01/17 07:49:30;;;;;;;52.45;29.35;;;0.90;95.50;;;;;;5022861;28;20069;-70
2021/01/17 07:52:00;;;;;;;50.58;28.45;;;0.90;95.50;;;;;;5021843;28;20045;-70
2021/01/17 07:54:32;;;;;;;57.78;29.30;;;0.90;95.50;;;;;;5024429;28;20081;-70
2021/01/17 07:57:06;;;;;;;53.45;28.70;;;1.00;95.50;;;;;;5021894;28;20037;-70
2021/01/17 07:59:32;;;;;;;55.58;28.58;;;0.90;95.60;;;;;;5017802;28;20137;-70
2021/01/17 08:01:58;;;;;;;60.65;29.42;;;0.90;95.60;;;;;;5024724;28;20164;-70
2021/01/17 08:04:25;;;;;;;60.45;29.90;;;0.90;95.50;;;;;;5029258;28;20037;-70
2021/01/17 08:06:54;;;;;;;49.90;26.77;;;1.00;95.70;;;;;;5027386;28;21347;-70
2021/01/17 08:09:43;;;;;;;59.22;29.50;;;0.90;95.60;;;;;;5028780;28;20525;-70
2021/01/17 08:12:09;;;;;;;55.65;27.60;;;0.90;95.70;;;;;;5024772;28;20163;-70
2021/01/17 08:14:41;;;;;;;58.05;29.52;;;1.00;95.70;;;;;;5024641;28;20380;-69
2021/01/17 08:17:16;;;;;;;53.72;28.33;;;1.00;95.60;;;;;;5024103;28;20061;-70
2021/01/17 08:20:00;;;;;;;54.88;27.83;;;1.00;95.60;;;;;;5026834;28;20061;-69
2021/01/17 08:22:25;;;;;;;55.20;27.65;;;1.00;95.60;;;;;;5026102;28;20156;-70
2021/01/17 08:24:54;;;;;;;52.78;28.17;;;1.00;95.60;;;;;;5024385;28;20521;-70
2021/01/17 08:27:32;;;;;;;50.22;28.23;;;1.10;95.60;;;;;;5023944;28;20436;-70
2021/01/17 08:30:00;;;;;;;48.55;28.08;;;1.00;95.50;;;;;;5026624;28;20112;-70
2021/01/17 08:32:40;;;;;;;54.88;26.88;;;1.10;95.50;;;;;;5025823;28;20045;-71
2021/01/17 08:35:18;;;;;;;56.42;29.02;;;1.10;95.50;;;;;;5025876;28;20484;-70
2021/01/17 08:37:53;;;;;;;63.70;30.17;;;1.10;95.50;;;;;;5026790;28;20124;-70
2021/01/17 08:40:50;;;;;;;54.13;27.25;;;1.10;95.60;;;;;;5026000;28;20041;-70
2021/01/17 08:43:17;;;;;;;53.25;27.25;;;1.10;95.50;;;;;;5021719;28;20042;-70
2021/01/17 08:45:47;;;;;;;61.00;27.85;;;1.10;95.60;;;;;;5028522;28;20140;-70
2021/01/17 08:48:16;;;;;;;64.85;29.48;;;1.10;95.60;;;;;;5025644;28;20091;-70
2021/01/17 08:50:45;;;;;;;56.95;28.38;;;1.10;95.60;;;;;;5027640;28;20072;-70
2021/01/17 08:53:11;;;;;;;59.60;28.67;;;1.10;95.60;;;;;;5027551;28;20041;-70
2021/01/17 08:55:43;;;;;;;62.03;28.95;;;1.10;95.60;;;;;;5024536;28;20084;-70
2021/01/17 08:58:31;;;;;;;53.30;27.38;;;1.10;95.60;;;;;;5025994;28;20041;-70
2021/01/17 09:00:57;;;;;;;59.72;27.58;;;1.10;95.60;;;;;;5028635;28;20045;-70
2021/01/17 09:03:30;;;;;;;66.25;29.02;;;1.10;95.60;;;;;;5025945;28;20029;-70
2021/01/17 09:05:57;;;;;;;66.80;29.20;;;1.10;95.60;;;;;;5024482;28;20038;-70
2021/01/17 09:08:22;;;;;;;65.93;28.15;;;1.10;95.70;;;;;;5026181;28;20542;-70
2021/01/17 09:10:48;;;;;;;82.40;31.73;;;1.10;95.80;;;;;;5028413;28;20049;-70
2021/01/17 09:13:25;;;;;;;69.45;30.02;;;1.10;95.90;;;;;;5025969;28;20048;-70
2021/01/17 09:15:57;;;;;;;73.60;31.00;;;1.10;95.90;;;;;;5025188;28;20129;-70
2021/01/17 09:18:26;;;;;;;75.75;30.67;;;1.10;96.00;;;;;;5026728;28;20570;-70
2021/01/17 09:20:53;;;;;;;89.90;32.65;;;1.20;96.00;;;;;;5023815;28;20044;-70
2021/01/17 09:23:20;;;;;;;66.93;29.35;;;1.20;96.00;;;;;;5026141;28;20044;-70
2021/01/17 09:25:57;;;;;;;78.00;32.13;;;1.20;96.00;;;;;;5021611;28;20037;-70
2021/01/17 09:28:23;;;;;;;84.22;31.25;;;1.20;95.90;;;;;;5026422;28;20037;-70
2021/01/17 09:30:53;;;;;;;89.68;32.55;;;1.40;96.00;;;;;;5025787;28;20052;-70
2021/01/17 09:33:19;;;;;;;80.82;32.33;;;1.20;96.00;;;;;;5026450;28;20446;-70
2021/01/17 09:35:46;;;;;;;92.07;33.38;;;1.20;96.00;;;;;;5024462;28;20408;-70
2021/01/17 09:38:20;;;;;;;81.43;32.33;;;1.20;95.90;;;;;;5022977;28;20049;-70
2021/01/17 09:40:51;;;;;;;79.90;31.92;;;1.20;95.90;;;;;;5025930;28;20248;-70
2021/01/17 09:43:18;;;;;;;80.90;32.10;;;1.20;95.90;;;;;;5026277;28;20046;-70
2021/01/17 09:45:51;;;;;;;88.95;31.52;;;1.20;95.90;;;;;;5020093;28;20116;-70
2021/01/17 09:48:18;;;;;;;92.45;32.70;;;1.30;96.00;;;;;;5023178;28;20542;-70
2021/01/17 09:50:44;;;;;;;78.57;29.23;;;1.30;96.00;;;;;;5022431;28;20598;-70
2021/01/17 09:53:10;;;;;;;74.35;31.33;;;1.30;96.00;;;;;;5023280;28;20030;-70
2021/01/17 09:55:39;;;;;;;70.25;28.88;;;1.30;95.90;;;;;;5026051;28;20494;-70
2021/01/17 09:58:06;;;;;;;79.25;30.33;;;1.30;95.90;;;;;;5026669;28;20723;-70
2021/01/17 10:00:32;;;;;;;81.57;29.85;;;1.30;95.90;;;;;;5024321;28;20655;-70
2021/01/17 10:02:58;;;;;;;84.85;30.40;;;1.30;95.90;;;;;;5027097;28;20033;-70
2021/01/17 10:05:31;;;;;;;86.03;29.20;;;1.40;95.90;;;;;;5023661;28;20041;-70
2021/01/17 10:08:01;;;;;;;99.35;31.90;;;1.40;95.90;;;;;;5025919;28;20085;-70
2021/01/17 10:10:26;;;;;;;86.90;31.30;;;1.30;95.90;;;;;;5022813;28;20037;-70
2021/01/17 10:12:53;;;;;;;79.82;29.45;;;1.30;95.90;;;;;;5020904;28;20045;-70
2021/01/17 10:15:19;;;;;;;82.10;31.25;;;1.40;96.00;;;;;;5026196;28;20038;-71
2021/01/17 10:17:48;;;;;;;88.90;29.88;;;1.40;96.00;;;;;;5024459;28;20067;-70
2021/01/17 10:20:27;;;;;;;82.15;30.33;;;1.40;95.90;;;;;;5020854;28;20398;-71
2021/01/17 10:23:03;;;;;;;82.93;29.27;;;1.50;95.90;;;;;;5020128;28;20041;-70
2021/01/17 10:25:29;;;;;;;87.90;30.77;;;1.60;95.90;;;;;;5017919;28;20511;-70
2021/01/17 10:28:09;;;;;;;76.40;28.30;;;1.60;95.80;;;;;;5023758;28;20033;-70
2021/01/17 10:30:40;;;;;;;80.32;28.92;;;1.60;95.80;;;;;;5019249;28;20038;-70
2021/01/17 10:33:08;;;;;;;72.28;27.90;;;1.60;95.80;;;;;;5022408;28;20108;-70
2021/01/17 10:35:54;;;;;;;79.15;29.15;;;1.70;95.80;;;;;;5020772;28;20042;-70
2021/01/17 10:38:20;;;;;;;69.38;27.90;;;1.70;95.80;;;;;;5025775;28;20050;-70
2021/01/17 10:40:47;;;;;;;69.10;28.27;;;1.70;95.70;;;;;;5022599;28;20384;-70
2021/01/17 10:43:25;;;;;;;71.55;26.83;;;1.90;95.70;;;;;;5018023;28;20056;-70
2021/01/17 10:46:10;;;;;;;63.28;26.70;;;1.70;95.60;;;;;;5025582;28;20458;-70
2021/01/17 10:48:47;;;;;;;70.82;28.40;;;1.70;95.60;;;;;;5023639;28;20118;-70
2021/01/17 10:51:19;;;;;;;74.40;28.95;;;1.80;95.50;;;;;;5023045;28;20125;-70
2021/01/17 10:53:49;;;;;;;61.33;27.10;;;1.90;95.60;;;;;;5018413;28;20696;-70
2021/01/17 10:56:20;;;;;;;61.40;26.80;;;1.70;95.60;;;;;;5017569;28;20091;-70
2021/01/17 10:58:46;;;;;;;76.82;26.95;;;1.80;95.50;;;;;;5020776;28;20053;-70
2021/01/17 11:01:12;;;;;;;72.00;27.65;;;1.80;95.50;;;;;;5026084;28;20381;-70
2021/01/17 11:03:43;;;;;;;61.65;25.83;;;1.90;95.60;;;;;;5023418;28;20029;-70
2021/01/17 11:06:15;;;;;;;61.67;27.50;;;1.80;95.60;;;;;;5026156;28;20104;-70
2021/01/17 11:08:46;;;;;;;66.80;26.15;;;1.90;95.60;;;;;;5026026;28;20124;-70
2021/01/17 11:11:13;;;;;;;61.25;24.20;;;1.90;95.60;;;;;;5041530;28;20041;-70
2021/01/17 11:13:39;;;;;;;61.63;25.60;;;2.00;95.60;;;;;;5020057;28;20047;-71
2021/01/17 11:16:05;;;;;;;72.45;25.83;;;1.80;95.50;;;;;;5025110;28;20049;-71
2021/01/17 11:18:31;;;;;;;83.05;28.02;;;1.90;95.60;;;;;;5022068;28;20030;-71
2021/01/17 11:20:58;;;;;;;88.10;28.65;;;1.90;95.60;;;;;;5022991;28;20496;-70
2021/01/17 11:23:25;;;;;;;77.15;25.33;;;1.90;95.60;;;;;;5021537;28;20046;-70
2021/01/17 11:25:59;;;;;;;69.85;25.90;;;1.90;95.60;;;;;;5025856;28;20037;-70
2021/01/17 11:28:28;;;;;;;87.57;26.88;;;2.00;95.60;;;;;;5021795;28;20100;-70
2021/01/17 11:30:55;;;;;;;67.90;25.77;;;2.00;95.70;;;;;;5015066;28;20034;-70
2021/01/17 11:33:27;;;;;;;87.75;30.02;;;2.00;95.70;;;;;;5021486;28;20049;-70
2021/01/17 11:36:00;;;;;;;71.88;26.63;;;2.10;95.60;;;;;;5022911;28;20580;-70
2021/01/17 11:38:42;;;;;;;84.07;27.88;;;2.10;95.70;;;;;;5019548;28;20034;-70
2021/01/17 11:41:08;;;;;;;74.68;28.33;;;2.20;95.70;;;;;;5021701;28;20506;-70
2021/01/17 11:43:34;;;;;;;71.70;27.35;;;2.30;95.60;;;;;;5018212;28;20040;-70
2021/01/17 11:46:07;;;;;;;68.97;26.60;;;2.30;95.50;;;;;;5020936;28;20050;-71
2021/01/17 11:48:34;;;;;;;58.00;27.08;;;2.30;95.50;;;;;;5024054;28;20040;-70
2021/01/17 11:51:00;;;;;;;85.00;27.08;;;2.30;95.50;;;;;;5022558;28;20096;-70
2021/01/17 11:53:28;;;;;;;74.13;28.23;;;2.30;95.50;;;;;;5023178;28;20435;-71
2021/01/17 11:55:54;;;;;;;86.55;27.98;;;2.30;95.50;;;;;;5020731;28;20398;-71
2021/01/17 11:58:21;;;;;;;77.57;27.85;;;2.30;95.50;;;;;;5021536;28;20037;-71
2021/01/17 12:00:58;;;;;;;104.70;30.45;;;2.40;95.50;;;;;;5024823;28;20065;-71
2021/01/17 12:03:43;;;;;;;86.47;29.23;;;2.40;95.50;;;;;;5023784;28;20364;-71
2021/01/17 12:06:19;;;;;;;85.80;30.45;;;2.40;95.50;;;;;;5025233;28;20036;-71
2021/01/17 12:08:55;;;;;;;80.82;28.00;;;2.50;95.50;;;;;;5020658;28;20495;-71
2021/01/17 12:11:37;;;;;;;76.18;28.50;;;2.50;95.50;;;;;;5023175;28;20061;-71
2021/01/17 12:14:05;;;;;;;93.03;27.58;;;2.50;95.60;;;;;;5024172;28;20044;-71
2021/01/17 12:16:33;;;;;;;92.82;28.55;;;2.50;95.60;;;;;;5025314;28;20096;-71
2021/01/17 12:19:00;;;;;;;83.95;28.63;;;2.50;95.60;;;;;;5023412;28;20047;-71
2021/01/17 12:21:27;;;;;;;76.28;27.10;;;2.50;95.60;;;;;;5026625;28;20410;-71
2021/01/17 12:23:54;;;;;;;78.38;28.38;;;2.60;95.60;;;;;;5016810;28;20037;-71
2021/01/17 12:26:20;;;;;;;78.82;27.35;;;2.60;95.70;;;;;;5020140;28;20046;-71
2021/01/17 12:28:47;;;;;;;79.07;27.30;;;2.70;95.60;;;;;;5022362;28;20037;-71
2021/01/17 12:31:15;;;;;;;71.70;26.90;;;2.70;95.60;;;;;;5026007;28;20140;-71
2021/01/17 12:33:41;;;;;;;83.80;28.85;;;2.70;95.60;;;;;;5018435;28;20045;-71
2021/01/17 12:36:11;;;;;;;70.78;27.73;;;2.80;95.60;;;;;;5024539;28;20404;-72
2021/01/17 12:38:38;;;;;;;83.35;27.90;;;2.80;95.70;;;;;;5025584;28;20068;-71
2021/01/17 12:41:12;;;;;;;81.00;26.13;;;2.80;95.70;;;;;;5020185;28;20046;-72
2021/01/17 12:43:41;;;;;;;106.68;30.27;;;2.90;95.80;;;;;;5021211;28;20042;-72
2021/01/17 12:46:09;;;;;;;80.88;27.92;;;2.90;95.80;;;;;;5023760;28;20038;-71
2021/01/17 12:48:36;;;;;;;75.75;27.00;;;2.90;95.80;;;;;;5024329;28;20045;-71
2021/01/17 12:51:03;;;;;;;89.28;28.52;;;3.00;95.80;;;;;;5022768;28;20038;-71
2021/01/17 12:53:29;;;;;;;75.32;28.17;;;3.00;95.70;;;;;;5023010;28;20747;-72